createdAt,value
2018-12-04T00:03:09.826Z,15.55
2018-12-04T00:08:37.404Z,16.10
2018-12-04T00:14:01.608Z,13.70
2018-12-04T00:19:25.086Z,16.12
2018-12-04T00:24:48.926Z,12.80
2018-12-04T00:30:15.553Z,16.52
2018-12-04T00:35:44.948Z,12.28
2018-12-04T00:41:09.035Z,15.88
2018-12-04T00:46:33.539Z,11.18
2018-12-04T00:52:02.853Z,14.60
2018-12-04T00:57:30.206Z,13.00
2018-12-04T01:02:53.930Z,13.30
2018-12-04T01:08:17.529Z,12.70
2018-12-04T01:13:41.632Z,12.93
2018-12-04T01:16:10.886Z,15.03
2018-12-04T01:18:59.850Z,12.58
2018-12-04T01:21:48.234Z,11.60
2018-12-04T01:24:29.678Z,12.80
2018-12-04T01:29:53.509Z,11.25
2018-12-04T01:35:20.463Z,14.03
2018-12-04T01:40:43.951Z,10.98
2018-12-04T01:46:07.692Z,14.40
2018-12-04T01:51:31.529Z,15.55
2018-12-04T01:56:55.064Z,12.58
2018-12-04T01:59:37.857Z,11.60
2018-12-04T02:02:18.935Z,12.33
2018-12-04T02:07:43.049Z,18.07
2018-12-04T02:13:09.618Z,14.95
2018-12-04T02:18:33.735Z,14.68
2018-12-04T02:23:57.074Z,14.68
2018-12-04T02:29:21.008Z,16.40
2018-12-04T02:34:44.802Z,13.68
2018-12-04T02:40:08.483Z,12.20
2018-12-04T02:45:32.178Z,12.33
2018-12-04T02:50:55.970Z,13.90
2018-12-04T02:56:19.689Z,14.05
2018-12-04T03:01:44.012Z,16.73
2018-12-04T03:07:07.564Z,12.50
2018-12-04T03:12:31.741Z,14.68
2018-12-04T03:17:55.517Z,16.82
2018-12-04T03:23:20.677Z,20.90
2018-12-04T03:28:44.968Z,16.50
2018-12-04T03:34:12.729Z,14.30
2018-12-04T03:39:36.492Z,13.98
2018-12-04T03:45:06.615Z,14.20
2018-12-04T03:50:33.152Z,16.73
2018-12-04T03:55:57.180Z,15.23
2018-12-04T04:01:20.640Z,12.95
2018-12-04T04:06:44.211Z,14.00
2018-12-04T04:12:08.197Z,14.18
2018-12-04T04:17:32.138Z,20.10
2018-12-04T04:22:55.873Z,13.38
2018-12-04T04:28:25.291Z,15.80
2018-12-04T04:33:48.736Z,16.77
2018-12-04T04:39:12.746Z,16.85
2018-12-04T04:44:42.296Z,11.53
2018-12-04T04:50:09.054Z,13.20
2018-12-04T04:55:32.708Z,13.20
2018-12-04T05:01:05.137Z,15.38
2018-12-04T05:06:29.546Z,10.90
2018-12-04T05:11:53.191Z,12.10
2018-12-04T05:14:35.137Z,14.55
2018-12-04T05:17:16.791Z,12.25
2018-12-04T05:22:40.831Z,12.78
2018-12-04T05:28:04.528Z,8.10
2018-12-04T05:33:28.275Z,7.33
2018-12-04T05:38:51.901Z,6.60
2018-12-04T05:44:38.846Z,8.48
2018-12-04T05:47:08.127Z,8.15
2018-12-04T05:49:37.305Z,8.05
2018-12-04T05:52:06.437Z,8.60
2018-12-04T05:54:35.494Z,7.95
2018-12-04T05:57:04.478Z,8.35
2018-12-04T05:59:33.618Z,7.70
2018-12-04T06:02:02.788Z,7.50
2018-12-04T06:04:31.847Z,6.30
2018-12-04T06:07:00.954Z,6.70
2018-12-04T06:09:30.074Z,6.53
2018-12-04T06:11:59.208Z,7.87
2018-12-04T06:14:28.424Z,8.53
2018-12-04T06:16:57.475Z,5.78
2018-12-04T06:19:26.504Z,8.50
2018-12-04T06:21:55.563Z,11.33
2018-12-04T06:24:24.588Z,9.33
2018-12-04T06:26:53.588Z,9.10
2018-12-04T06:29:22.680Z,9.03
2018-12-04T06:31:52.305Z,11.75
2018-12-04T06:34:21.314Z,7.75
2018-12-04T06:36:50.492Z,5.62
2018-12-04T06:39:19.527Z,8.83
2018-12-04T06:41:48.670Z,7.33
2018-12-04T06:44:17.801Z,7.65
2018-12-04T06:46:46.860Z,6.58
2018-12-04T06:49:16.022Z,8.65
2018-12-04T06:51:45.766Z,6.08
2018-12-04T06:54:14.674Z,8.43
2018-12-04T06:56:43.646Z,8.88
2018-12-04T06:59:12.942Z,9.30
2018-12-04T07:01:41.926Z,7.00
2018-12-04T07:04:10.950Z,8.58
2018-12-04T07:06:40.063Z,9.75
2018-12-04T07:09:09.178Z,9.18
2018-12-04T07:11:38.428Z,8.05
2018-12-04T07:14:08.296Z,6.30
2018-12-04T07:16:37.381Z,11.43
2018-12-04T07:19:06.421Z,7.85
2018-12-04T07:21:35.574Z,6.03
2018-12-04T07:24:04.701Z,10.35
2018-12-04T07:26:33.714Z,8.03
2018-12-04T07:29:02.834Z,7.58
2018-12-04T07:31:31.829Z,11.05
2018-12-04T07:34:00.851Z,7.22
2018-12-04T07:36:29.975Z,9.83
2018-12-04T07:38:59.266Z,7.22
2018-12-04T07:41:28.219Z,7.75
2018-12-04T07:43:57.304Z,7.50
2018-12-04T07:46:26.441Z,6.75
2018-12-04T07:48:55.486Z,8.03
2018-12-04T07:51:24.622Z,10.72
2018-12-04T07:53:53.614Z,12.70
2018-12-04T07:56:22.602Z,5.83
2018-12-04T07:58:51.647Z,6.97
2018-12-04T08:01:20.695Z,9.40
2018-12-04T08:03:49.775Z,7.58
2018-12-04T08:06:18.812Z,7.12
2018-12-04T08:08:47.887Z,6.85
2018-12-04T08:11:16.871Z,7.97
2018-12-04T08:13:46.049Z,16.42
2018-12-04T08:16:15.093Z,11.00
2018-12-04T08:18:44.132Z,15.78
2018-12-04T08:21:13.305Z,8.23
2018-12-04T08:23:42.326Z,12.60
2018-12-04T08:26:11.383Z,8.95
2018-12-04T08:28:40.576Z,12.53
2018-12-04T08:31:10.658Z,9.13
2018-12-04T08:33:40.140Z,8.08
2018-12-04T08:36:09.373Z,9.35
2018-12-04T08:38:38.437Z,13.28
2018-12-04T08:41:07.560Z,10.53
2018-12-04T08:43:36.663Z,7.95
2018-12-04T08:46:05.633Z,6.70
2018-12-04T08:48:34.748Z,7.12
2018-12-04T08:51:03.754Z,5.47
2018-12-04T08:53:32.755Z,4.60
2018-12-04T08:56:01.972Z,8.28
2018-12-04T08:58:30.889Z,5.30
2018-12-04T09:00:59.803Z,3.83
2018-12-04T09:03:28.734Z,3.52
2018-12-04T09:05:57.755Z,4.55
2018-12-04T09:08:26.746Z,4.67
2018-12-04T09:10:56.573Z,4.37
2018-12-04T09:13:25.734Z,4.67
2018-12-04T09:15:54.923Z,3.83
2018-12-04T09:18:23.898Z,4.65
2018-12-04T09:20:53.024Z,3.62
2018-12-04T09:23:22.088Z,5.92
2018-12-04T09:25:51.150Z,4.75
2018-12-04T09:28:20.263Z,4.37
2018-12-04T09:30:49.413Z,4.15
2018-12-04T09:33:18.410Z,3.87
2018-12-04T09:35:47.400Z,3.27
2018-12-04T09:38:16.430Z,4.65
2018-12-04T09:40:45.372Z,2.37
2018-12-04T09:43:14.342Z,4.78
2018-12-04T09:45:43.265Z,3.85
2018-12-04T09:48:12.226Z,2.22
2018-12-04T09:50:41.309Z,2.80
2018-12-04T09:53:10.317Z,3.08
2018-12-04T09:55:39.308Z,4.25
2018-12-04T09:58:08.534Z,4.78
2018-12-04T10:00:37.535Z,3.67
2018-12-04T10:03:06.446Z,5.85
2018-12-04T10:05:35.551Z,3.40
2018-12-04T10:08:04.595Z,5.97
2018-12-04T10:10:33.558Z,6.30
2018-12-04T10:13:02.582Z,2.77
2018-12-04T10:15:31.576Z,2.90
2018-12-04T10:18:00.608Z,4.55
2018-12-04T10:20:29.905Z,2.60
2018-12-04T10:22:58.906Z,7.70
2018-12-04T10:25:27.874Z,6.80
2018-12-04T10:27:56.939Z,9.25
2018-12-04T10:30:26.063Z,2.90
2018-12-04T10:32:55.127Z,2.25
2018-12-04T10:35:24.264Z,2.50
2018-12-04T10:37:53.292Z,2.67
2018-12-04T10:40:22.371Z,5.00
2018-12-04T10:42:51.401Z,2.05
2018-12-04T10:45:20.463Z,2.55
2018-12-04T10:47:49.572Z,3.40
2018-12-04T10:50:18.587Z,3.22
2018-12-04T10:52:47.612Z,3.60
2018-12-04T10:55:16.590Z,2.20
2018-12-04T10:57:45.763Z,4.67
2018-12-04T11:00:20.017Z,1.50
2018-12-04T11:02:50.018Z,4.50
2018-12-04T11:05:19.091Z,1.65
2018-12-04T11:07:48.040Z,2.17
2018-12-04T11:10:17.081Z,2.47
2018-12-04T11:12:46.725Z,5.75
2018-12-04T11:15:15.692Z,5.37
2018-12-04T11:17:44.629Z,2.55
2018-12-04T11:20:13.659Z,2.98
2018-12-04T11:22:43.543Z,4.00
2018-12-04T11:25:13.435Z,2.20
2018-12-04T11:27:42.328Z,3.70
2018-12-04T11:30:11.543Z,4.65
2018-12-04T11:32:40.565Z,2.98
2018-12-04T11:35:09.591Z,4.60
2018-12-04T11:37:38.654Z,2.30
2018-12-04T11:40:08.830Z,2.50
2018-12-04T11:42:37.804Z,5.50
2018-12-04T11:45:06.839Z,2.42
2018-12-04T11:47:35.828Z,3.40
2018-12-04T11:50:05.315Z,3.35
2018-12-04T11:52:34.246Z,2.15
2018-12-04T11:55:03.229Z,2.77
2018-12-04T11:57:32.239Z,3.30
2018-12-04T12:00:01.333Z,4.17
2018-12-04T12:02:30.331Z,3.30
2018-12-04T12:04:59.251Z,3.92
2018-12-04T12:07:28.238Z,2.37
2018-12-04T12:09:57.231Z,1.77
2018-12-04T12:12:26.332Z,4.87
2018-12-04T12:14:55.247Z,3.52
2018-12-04T12:17:24.618Z,2.37
2018-12-04T12:19:53.614Z,3.92
2018-12-04T12:22:22.549Z,5.10
2018-12-04T12:24:51.564Z,4.75
2018-12-04T12:27:20.490Z,3.98
2018-12-04T12:29:49.406Z,2.22
2018-12-04T12:32:18.373Z,7.53
2018-12-04T12:34:47.593Z,3.72
2018-12-04T12:37:16.565Z,1.98
2018-12-04T12:39:45.582Z,3.40
2018-12-04T12:42:14.602Z,2.55
2018-12-04T12:44:43.567Z,4.92
2018-12-04T12:47:12.575Z,6.42
2018-12-04T12:49:41.571Z,4.17
2018-12-04T12:52:10.574Z,8.63
2018-12-04T12:54:39.588Z,3.37
2018-12-04T12:57:08.619Z,2.80
2018-12-04T12:59:37.775Z,3.55
2018-12-04T13:02:06.988Z,4.45
2018-12-04T13:04:36.007Z,2.85
2018-12-04T13:07:05.029Z,4.80
2018-12-04T13:09:34.123Z,3.87
2018-12-04T13:12:03.048Z,12.20
2018-12-04T13:14:32.042Z,9.30
2018-12-04T13:17:01.014Z,3.20
2018-12-04T13:19:29.999Z,3.42
2018-12-04T13:21:59.006Z,5.17
2018-12-04T13:24:28.125Z,3.05
2018-12-04T13:26:57.177Z,7.62
2018-12-04T13:29:26.175Z,4.78
2018-12-04T13:31:55.323Z,3.25
2018-12-04T13:34:26.241Z,4.50
2018-12-04T13:36:55.350Z,4.00
2018-12-04T13:39:24.440Z,5.45
2018-12-04T13:41:53.640Z,2.65
2018-12-04T13:44:22.687Z,5.47
2018-12-04T13:46:51.703Z,2.83
2018-12-04T13:49:20.631Z,4.30
2018-12-04T13:51:49.740Z,5.50
2018-12-04T13:54:18.694Z,7.12
2018-12-04T13:56:47.713Z,6.47
2018-12-04T13:59:16.782Z,2.62
2018-12-04T14:01:45.885Z,5.67
2018-12-04T14:04:17.203Z,4.28
2018-12-04T14:06:45.913Z,4.30
2018-12-04T14:09:14.914Z,6.78
2018-12-04T14:11:44.020Z,5.35
2018-12-04T14:14:13.196Z,4.37
2018-12-04T14:16:42.265Z,7.15
2018-12-04T14:19:11.581Z,6.12
2018-12-04T14:21:40.664Z,4.30
2018-12-04T14:24:09.702Z,4.75
2018-12-04T14:26:38.991Z,3.87
2018-12-04T14:29:08.279Z,4.62
2018-12-04T14:31:37.289Z,9.48
2018-12-04T14:34:06.351Z,5.70
2018-12-04T14:36:35.413Z,5.10
2018-12-04T14:39:09.176Z,8.80
2018-12-04T14:41:39.057Z,7.08
2018-12-04T14:44:10.556Z,4.78
2018-12-04T14:46:41.059Z,4.95
2018-12-04T14:49:10.126Z,6.58
2018-12-04T14:51:39.223Z,7.58
2018-12-04T14:54:08.327Z,7.40
2018-12-04T14:56:37.409Z,10.55
2018-12-04T14:59:06.599Z,3.72
2018-12-04T15:01:35.843Z,6.72
2018-12-04T15:04:05.017Z,4.60
2018-12-04T15:06:34.044Z,6.80
2018-12-04T15:09:03.156Z,7.50
2018-12-04T15:11:32.219Z,10.15
2018-12-04T15:14:01.303Z,10.35
2018-12-04T15:16:30.352Z,7.12
2018-12-04T15:18:59.396Z,8.45
2018-12-04T15:21:28.384Z,9.45
2018-12-04T15:23:57.507Z,5.55
2018-12-04T15:26:26.550Z,7.05
2018-12-04T15:28:55.824Z,11.57
2018-12-04T15:31:24.944Z,5.65
2018-12-04T15:33:53.983Z,7.90
2018-12-04T15:36:23.097Z,8.90
2018-12-04T15:38:52.182Z,10.30
2018-12-04T15:41:21.354Z,6.15
2018-12-04T15:43:50.395Z,11.80
2018-12-04T15:46:19.459Z,23.30
2018-12-04T15:51:47.233Z,75.37
2018-12-04T15:54:16.325Z,23.67
2018-12-04T15:56:45.330Z,35.20
2018-12-04T15:59:14.391Z,20.62
2018-12-04T16:01:43.379Z,12.43
2018-12-04T16:04:12.307Z,18.73
2018-12-04T16:06:41.378Z,15.18
2018-12-04T16:09:10.306Z,16.70
2018-12-04T16:11:39.229Z,13.53
2018-12-04T16:14:08.474Z,17.02
2018-12-04T16:16:37.536Z,14.30
2018-12-04T16:19:06.572Z,9.75
2018-12-04T16:21:35.534Z,9.75
2018-12-04T16:24:04.550Z,9.10
2018-12-04T16:26:33.520Z,15.30
2018-12-04T16:29:02.545Z,10.43
2018-12-04T16:31:31.498Z,18.80
2018-12-04T16:34:00.510Z,12.53
2018-12-04T16:36:29.519Z,11.00
2018-12-04T16:38:58.597Z,17.65
2018-12-04T16:41:27.709Z,16.87
2018-12-04T16:43:56.750Z,18.98
2018-12-04T16:46:26.060Z,12.75
2018-12-04T16:48:55.375Z,12.07
2018-12-04T16:51:24.490Z,21.42
2018-12-04T16:53:53.492Z,16.87
2018-12-04T16:56:22.556Z,17.32
2018-12-04T16:58:51.694Z,17.67
2018-12-04T17:01:20.766Z,14.25
2018-12-04T17:03:49.795Z,12.45
2018-12-04T17:06:19.948Z,14.83
2018-12-04T17:08:49.038Z,11.60
2018-12-04T17:11:18.030Z,10.45
2018-12-04T17:13:47.916Z,13.05
2018-12-04T17:16:17.121Z,9.90
2018-12-04T17:18:46.321Z,9.60
2018-12-04T17:21:15.280Z,10.03
2018-12-04T17:23:44.268Z,8.43
2018-12-04T17:26:13.455Z,14.70
2018-12-04T17:28:42.569Z,17.15
2018-12-04T17:31:11.582Z,14.80
2018-12-04T17:33:40.659Z,14.20
2018-12-04T17:36:09.678Z,21.55
2018-12-04T17:38:38.632Z,19.77
2018-12-04T17:41:07.668Z,12.15
2018-12-04T17:43:36.792Z,16.82
2018-12-04T17:46:05.822Z,10.45
2018-12-04T17:48:34.815Z,17.02
2018-12-04T17:51:03.992Z,12.37
2018-12-04T17:53:32.974Z,8.15
2018-12-04T17:56:02.078Z,12.00
2018-12-04T17:58:31.058Z,9.13
2018-12-04T18:01:00.070Z,12.95
2018-12-04T18:03:29.049Z,12.45
2018-12-04T18:05:58.059Z,8.65
2018-12-04T18:08:27.183Z,8.68
2018-12-04T18:10:56.260Z,6.70
2018-12-04T18:13:25.239Z,14.78
2018-12-04T18:15:54.438Z,8.70
2018-12-04T18:18:23.835Z,13.93
2018-12-04T18:20:53.328Z,10.08
2018-12-04T18:23:22.292Z,9.85
2018-12-04T18:25:51.397Z,14.78
2018-12-04T18:28:20.327Z,10.63
2018-12-04T18:30:49.304Z,9.75
2018-12-04T18:33:18.499Z,8.78
2018-12-04T18:35:48.395Z,10.70
2018-12-04T18:38:17.439Z,14.80
2018-12-04T18:40:46.431Z,12.15
2018-12-04T18:43:15.388Z,8.98
2018-12-04T18:45:44.353Z,12.45
2018-12-04T18:48:13.376Z,10.58
2018-12-04T18:50:42.347Z,10.90
2018-12-04T18:53:11.462Z,12.18
2018-12-04T18:55:40.499Z,10.28
2018-12-04T18:58:09.596Z,10.43
2018-12-04T19:00:38.692Z,12.33
2018-12-04T19:03:08.829Z,9.73
2018-12-04T19:05:38.585Z,13.90
2018-12-04T19:08:08.022Z,10.58
2018-12-04T19:10:37.118Z,8.55
2018-12-04T19:13:06.215Z,14.13
2018-12-04T19:15:35.273Z,17.25
2018-12-04T19:18:04.223Z,13.13
2018-12-04T19:20:33.414Z,14.63
2018-12-04T19:23:02.486Z,8.13
2018-12-04T19:25:31.463Z,11.63
2018-12-04T19:28:01.266Z,9.60
2018-12-04T19:30:30.403Z,10.10
2018-12-04T19:32:59.357Z,11.40
2018-12-04T19:35:28.426Z,10.32
2018-12-04T19:38:01.198Z,12.35
2018-12-04T19:40:32.043Z,6.35
2018-12-04T19:43:01.125Z,10.23
2018-12-04T19:45:37.228Z,6.85
2018-12-04T19:48:07.485Z,6.78
2018-12-04T19:50:39.999Z,7.25
2018-12-04T19:53:09.575Z,8.25
2018-12-04T19:55:39.104Z,8.10
2018-12-04T19:58:08.090Z,11.48
2018-12-04T20:00:38.173Z,6.92
2018-12-04T20:03:07.283Z,11.70
2018-12-04T20:05:36.612Z,10.38
2018-12-04T20:08:06.188Z,8.80
2018-12-04T20:10:35.194Z,7.80
2018-12-04T20:13:04.349Z,9.13
2018-12-04T20:15:33.355Z,8.48
2018-12-04T20:18:02.415Z,7.28
2018-12-04T20:20:31.367Z,5.90
2018-12-04T20:23:00.369Z,11.00
2018-12-04T20:25:29.325Z,5.60
2018-12-04T20:27:58.278Z,10.75
2018-12-04T20:30:27.287Z,14.98
2018-12-04T20:32:59.813Z,7.08
2018-12-04T20:35:27.305Z,7.15
2018-12-04T20:37:56.300Z,6.08
2018-12-04T20:40:31.419Z,13.90
2018-12-04T20:42:56.359Z,7.95
2018-12-04T20:45:25.367Z,7.72
2018-12-04T20:47:55.309Z,4.53
2018-12-04T20:50:24.427Z,14.58
2018-12-04T20:52:53.400Z,13.20
2018-12-04T20:55:22.411Z,14.15
2018-12-04T20:57:52.339Z,7.62
2018-12-04T21:00:21.387Z,7.83
2018-12-04T21:02:50.568Z,8.88
2018-12-04T21:05:19.589Z,8.38
2018-12-04T21:07:48.565Z,11.45
2018-12-04T21:10:17.605Z,11.93
2018-12-04T21:12:46.685Z,15.60
2018-12-04T21:15:19.369Z,14.20
2018-12-04T21:17:48.465Z,10.93
2018-12-04T21:20:17.506Z,19.00
2018-12-04T21:22:46.607Z,12.05
2018-12-04T21:25:16.334Z,17.40
2018-12-04T21:27:50.751Z,23.62
2018-12-04T21:30:24.952Z,17.65
2018-12-04T21:33:58.820Z,14.85
2018-12-04T21:36:32.963Z,18.85
2018-12-04T21:39:07.193Z,10.75
2018-12-04T21:41:41.346Z,12.07
2018-12-04T21:44:15.477Z,8.98
2018-12-04T21:46:49.719Z,15.48
2018-12-04T21:49:18.844Z,12.85
2018-12-04T21:51:47.836Z,8.20
2018-12-04T21:54:16.966Z,10.98
2018-12-04T21:56:45.978Z,12.00
2018-12-04T21:59:15.115Z,15.93
2018-12-04T22:01:44.382Z,7.85
2018-12-04T22:04:13.417Z,7.45
2018-12-04T22:06:42.400Z,9.33
2018-12-04T22:09:11.463Z,9.28
2018-12-04T22:11:40.513Z,7.03
2018-12-04T22:14:09.574Z,7.45
2018-12-04T22:16:38.793Z,10.28
2018-12-04T22:19:07.899Z,10.75
2018-12-04T22:21:36.918Z,8.18
2018-12-04T22:24:07.027Z,7.28
2018-12-04T22:26:36.029Z,11.78
2018-12-04T22:29:05.201Z,9.68
2018-12-04T22:31:34.232Z,9.58
2018-12-04T22:34:03.243Z,7.50
2018-12-04T22:36:32.239Z,10.88
2018-12-04T22:39:01.296Z,9.43
2018-12-04T22:41:30.322Z,8.88
2018-12-04T22:43:59.368Z,5.25
2018-12-04T22:46:28.488Z,4.87
2018-12-04T22:48:57.540Z,7.67
2018-12-04T22:51:26.950Z,12.68
2018-12-04T22:53:56.014Z,9.70
2018-12-04T22:56:25.002Z,10.08
2018-12-04T22:58:54.035Z,9.98
2018-12-04T23:01:34.015Z,9.28
2018-12-04T23:04:03.434Z,9.28
2018-12-04T23:06:32.468Z,6.03
2018-12-04T23:09:01.608Z,24.87
2018-12-04T23:11:30.654Z,7.30
2018-12-04T23:13:59.754Z,9.25
2018-12-04T23:16:28.867Z,14.70
2018-12-04T23:18:57.882Z,12.98
2018-12-04T23:21:26.910Z,6.28
2018-12-04T23:23:55.967Z,14.83
2018-12-04T23:26:24.928Z,6.85
2018-12-04T23:28:53.889Z,6.53
2018-12-04T23:31:23.040Z,11.97
2018-12-04T23:33:51.982Z,6.95
2018-12-04T23:36:20.905Z,12.75
2018-12-04T23:38:50.008Z,9.38
2018-12-04T23:41:18.993Z,7.33
2018-12-04T23:43:47.985Z,7.30
2018-12-04T23:46:17.021Z,9.25
2018-12-04T23:48:45.952Z,6.03
2018-12-04T23:51:14.861Z,6.70
2018-12-04T23:53:43.839Z,5.15
2018-12-04T23:56:12.738Z,5.72
2018-12-04T23:58:41.704Z,9.83
